Potter, Nebraska
Current Conditions -  °F | °C
As of 9:15 PM on Tuesday 27 Jan 2015 (Local Time) from KIBM Reporting Station
Clear Clear  
Wind Chill: 29°   Ceiling: Unl
Heat Index: 37°   Visibility: 10mi
Dew Point: 27°   Wind: 12mph
Humidity: 68%   Direction: 290°WNW
Pressure: 29.97"   Gusts: NA
Location:  41.22°N, 103.32°W
Report Text: KIBM 280415Z AUTO 29010KT 10SM CLR 03/M03 A2997 RMK AO2 T00271027
Loading
Personal Weather Stations






























Interactive Weather Map New forecast layout! Learn more

10-Day Weather Forecast

Advertisements
Track Severe Weather on mobile